Time;durP1;ratioP1;P1;durP2;ratioP2;P2;SDS_P1;SDS_P2;PMS_P1;PMS_P2;Temp;Humidity;BMP_temperature;BMP_pressure;BME280_temperature;BME280_humidity;BME280_pressure;Samples;Min_cycle;Max_cycle;Signal;HPM_P1;HPM_P2
2021/12/19 00:00:18;;;;;;;29.03;13.43;;;;;;;5.25;92.69;99819.13;4935128;28;20637;-86
2021/12/19 00:03:06;;;;;;;26.30;13.63;;;;;;;5.31;92.52;99816.41;4945992;28;20666;-86
2021/12/19 00:08:50;;;;;;;28.20;13.23;;;;;;;5.37;93.02;99800.78;4960612;28;20628;-86
2021/12/19 00:11:19;;;;;;;26.17;12.80;;;;;;;5.39;93.81;99799.00;4949294;28;20732;-86
2021/12/19 00:13:50;;;;;;;28.40;14.33;;;;;;;5.40;93.63;99799.88;4961881;28;20645;-86
2021/12/19 00:16:20;;;;;;;34.87;14.87;;;;;;;5.39;93.29;99795.56;4962623;28;21154;-86
2021/12/19 00:18:50;;;;;;;29.60;13.83;;;;;;;5.33;93.46;99796.53;4964122;28;20624;-86
2021/12/19 00:21:18;;;;;;;39.30;15.40;;;;;;;5.34;93.31;99800.84;4965979;28;20636;-86
2021/12/19 00:23:48;;;;;;;34.40;15.13;;;;;;;5.30;94.02;99790.59;4947865;28;21477;-86
2021/12/19 00:26:17;;;;;;;32.43;14.63;;;;;;;5.22;93.34;99795.06;4949290;28;20636;-86
2021/12/19 00:28:46;;;;;;;31.27;14.93;;;;;;;5.18;93.24;99781.31;4964564;28;20663;-86
2021/12/19 00:31:14;;;;;;;31.33;14.60;;;;;;;5.19;94.09;99777.88;4931443;28;20646;-86
2021/12/19 00:33:44;;;;;;;28.20;13.23;;;;;;;5.22;93.85;99779.56;4950483;28;20648;-86
2021/12/19 00:36:13;;;;;;;29.57;13.60;;;;;;;5.26;94.52;99786.34;4964714;28;20750;-86
2021/12/19 00:38:41;;;;;;;32.17;15.10;;;;;;;5.29;94.54;99775.94;4950497;28;20628;-86
2021/12/19 00:41:10;;;;;;;33.93;14.23;;;;;;;5.30;94.37;99762.97;4965095;28;20630;-86
2021/12/19 00:43:45;;;;;;;34.93;12.37;;;;;;;5.29;94.02;99774.22;4960929;28;21181;-86
2021/12/19 00:46:14;;;;;;;25.00;12.43;;;;;;;5.26;93.63;99776.88;4964363;28;21187;-86
2021/12/19 00:48:46;;;;;;;26.20;11.60;;;;;;;5.25;94.08;99769.16;4964970;28;20627;-86
2021/12/19 00:51:17;;;;;;;27.50;12.60;;;;;;;5.29;93.54;99776.81;4950758;28;20835;-86
2021/12/19 00:53:45;;;;;;;21.97;11.43;;;;;;;5.31;93.52;99775.03;4950119;28;20643;-86
2021/12/19 00:56:14;;;;;;;21.30;10.10;;;;;;;5.34;93.39;99769.81;4960040;28;20663;-86
2021/12/19 00:58:42;;;;;;;19.83;9.23;;;;;;;5.38;93.54;99766.28;4948666;28;20737;-86
2021/12/19 01:01:15;;;;;;;18.60;10.07;;;;;;;5.41;92.95;99763.63;4966001;28;21016;-86
2021/12/19 01:03:46;;;;;;;19.23;9.70;;;;;;;5.40;93.13;99761.91;4952776;28;20651;-86
2021/12/19 01:06:17;;;;;;;22.33;9.70;;;;;;;5.41;93.42;99755.00;4948518;28;21033;-86
2021/12/19 01:08:46;;;;;;;20.10;9.30;;;;;;;5.44;93.19;99749.75;4966581;28;21204;-86
2021/12/19 01:11:17;;;;;;;21.30;10.53;;;;;;;5.43;92.96;99742.91;4964461;28;20659;-86
2021/12/19 01:13:47;;;;;;;22.00;10.53;;;;;;;5.42;92.75;99751.53;4966249;28;20658;-86
2021/12/19 01:16:16;;;;;;;25.17;11.77;;;;;;;5.35;92.38;99755.13;4965270;28;20640;-86
2021/12/19 01:18:45;;;;;;;24.07;10.70;;;;;;;5.27;92.71;99744.94;4967485;28;20628;-86
2021/12/19 01:21:15;;;;;;;17.80;9.37;;;;;;;5.29;93.06;99748.38;4937249;28;20641;-86
2021/12/19 01:23:43;;;;;;;27.07;10.83;;;;;;;5.22;92.55;99761.44;4951119;28;20643;-87
2021/12/19 01:26:11;;;;;;;24.90;10.00;;;;;;;5.18;93.33;99758.06;4950675;28;20647;-86
2021/12/19 01:28:42;;;;;;;20.17;10.77;;;;;;;5.15;93.63;99765.88;4962901;28;20639;-86
2021/12/19 01:31:10;;;;;;;27.03;12.07;;;;;;;5.13;92.77;99764.22;4948556;28;21222;-86
2021/12/19 01:33:39;;;;;;;25.07;11.27;;;;;;;5.08;93.45;99766.03;4950006;28;20725;-86
2021/12/19 01:36:08;;;;;;;27.97;12.77;;;;;;;5.05;93.39;99760.06;4964807;28;21119;-86
2021/12/19 01:38:38;;;;;;;29.53;12.60;;;;;;;5.07;93.55;99760.91;4967239;28;20635;-86
2021/12/19 01:41:07;;;;;;;22.20;10.93;;;;;;;5.09;94.16;99752.22;4953042;28;20648;-86
2021/12/19 01:43:35;;;;;;;24.00;10.87;;;;;;;5.09;93.83;99753.97;4962750;28;20624;-86
2021/12/19 01:46:03;;;;;;;23.10;11.47;;;;;;;5.09;93.32;99756.56;4946741;28;20650;-86
2021/12/19 01:48:32;;;;;;;21.63;10.50;;;;;;;5.08;94.17;99752.25;4966216;28;20644;-86
2021/12/19 01:51:00;;;;;;;23.37;11.03;;;;;;;5.04;94.35;99758.38;4949425;28;20661;-86
2021/12/19 01:53:29;;;;;;;26.60;12.07;;;;;;;5.00;93.67;99761.91;4964192;28;20658;-86
2021/12/19 01:55:58;;;;;;;25.20;11.60;;;;;;;4.97;93.99;99767.97;4950724;28;20643;-86
2021/12/19 01:58:26;;;;;;;21.33;10.20;;;;;;;4.95;94.38;99763.75;4966404;28;20631;-87
2021/12/19 02:00:56;;;;;;;24.70;11.10;;;;;;;4.91;94.54;99762.09;4949085;28;20628;-86
2021/12/19 02:03:25;;;;;;;25.17;11.40;;;;;;;4.85;95.02;99772.53;4967149;28;20670;-86
2021/12/19 02:05:53;;;;;;;27.90;12.43;;;;;;;4.86;94.70;99756.16;4965620;28;21029;-86
2021/12/19 02:08:22;;;;;;;21.60;10.13;;;;;;;4.89;94.15;99749.19;4933198;28;20644;-86
2021/12/19 02:10:51;;;;;;;25.47;11.40;;;;;;;4.91;94.10;99746.56;4953264;28;20987;-86
2021/12/19 02:13:20;;;;;;;26.90;11.50;;;;;;;4.93;94.07;99745.69;4961504;28;20641;-86
2021/12/19 02:15:48;;;;;;;24.53;10.80;;;;;;;4.91;94.22;99744.00;4965616;28;20658;-86
2021/12/19 02:18:17;;;;;;;23.70;11.60;;;;;;;4.82;95.09;99734.69;4948214;28;20633;-86
2021/12/19 02:20:52;;;;;;;23.47;11.10;;;;;;;4.81;94.09;99734.69;4947357;28;20657;-86
2021/12/19 02:23:21;;;;;;;26.67;10.87;;;;;;;4.81;94.17;99724.38;4949805;28;21029;-86
2021/12/19 02:25:49;;;;;;;24.20;10.97;;;;;;;4.80;94.66;99728.69;4966539;28;21470;-86
2021/12/19 02:28:18;;;;;;;26.93;12.10;;;;;;;4.75;94.83;99727.94;4966322;28;21216;-86
2021/12/19 02:30:46;;;;;;;26.37;11.23;;;;;;;4.69;95.38;99730.63;4961640;28;20648;-86
2021/12/19 02:33:19;;;;;;;29.17;12.10;;;;;;;4.64;95.49;99726.44;4947894;28;20644;-86
2021/12/19 02:35:55;;;;;;;25.87;10.90;;;;;;;4.60;94.91;99717.06;4963115;28;21285;-86
2021/12/19 02:49:41;;;;;;;24.70;11.30;;;;;;;4.62;95.33;99715.28;4889141;29;20633;-86
2021/12/19 02:52:14;;;;;;;25.53;11.47;;;;;;;4.66;95.31;99724.69;4933161;28;21211;-86
2021/12/19 02:54:44;;;;;;;29.53;11.40;;;;;;;4.69;96.17;99714.25;4949273;28;20639;-86
2021/12/19 02:57:13;;;;;;;21.73;10.60;;;;;;;4.60;94.75;99713.59;4965413;28;20650;-86
2021/12/19 02:59:41;;;;;;;24.67;11.80;;;;;;;4.53;94.93;99707.72;4951788;28;20644;-86
2021/12/19 03:02:09;;;;;;;27.00;12.17;;;;;;;4.48;96.17;99701.78;4965727;28;21067;-86
2021/12/19 03:04:37;;;;;;;23.60;11.13;;;;;;;4.46;96.24;99695.78;4932972;28;20639;-86
2021/12/19 03:07:05;;;;;;;25.17;10.73;;;;;;;4.45;96.45;99690.63;4944119;28;21220;-87
2021/12/19 03:09:52;;;;;;;23.80;11.30;;;;;;;4.42;95.51;99688.09;4967168;28;20656;-86
2021/12/19 03:12:33;;;;;;;25.80;10.50;;;;;;;4.46;96.56;99693.19;4948069;28;20714;-86
2021/12/19 03:17:59;;;;;;;24.50;10.87;;;;;;;4.42;96.57;99693.28;4959947;28;20637;-86
2021/12/19 03:20:28;;;;;;;23.03;10.80;;;;;;;4.44;96.10;99705.28;4965842;28;20639;-86
2021/12/19 03:22:58;;;;;;;30.43;12.00;;;;;;;4.41;96.00;99687.28;4964915;28;21222;-86
2021/12/19 03:25:26;;;;;;;25.90;11.73;;;;;;;4.40;95.73;99688.13;4959606;28;20675;-86
2021/12/19 03:27:56;;;;;;;25.03;11.20;;;;;;;4.40;96.66;99685.56;4934635;28;20645;-85
2021/12/19 03:30:24;;;;;;;25.57;12.37;;;;;;;4.41;95.85;99679.53;4968391;28;20646;-86
2021/12/19 03:32:57;;;;;;;30.60;12.57;;;;;;;4.34;95.41;99680.50;4935383;28;21200;-86
2021/12/19 03:35:27;;;;;;;21.80;11.00;;;;;;;4.37;95.19;99683.03;4948199;28;21254;-86
2021/12/19 03:37:55;;;;;;;31.43;12.60;;;;;;;4.42;95.83;99673.50;4964189;28;20641;-86
2021/12/19 03:40:34;;;;;;;24.40;10.93;;;;;;;4.49;95.83;99669.88;4968437;28;20643;-86
2021/12/19 03:43:08;;;;;;;24.13;11.13;;;;;;;4.46;95.67;99658.78;4964033;28;20731;-86
2021/12/19 03:45:37;;;;;;;25.70;12.03;;;;;;;4.45;95.09;99665.69;4965672;28;20633;-86
2021/12/19 03:48:08;;;;;;;33.27;11.20;;;;;;;4.44;95.94;99663.13;4964546;28;20624;-86
2021/12/19 03:50:38;;;;;;;24.83;11.47;;;;;;;4.50;95.69;99666.44;4949641;28;20746;-86
2021/12/19 03:53:07;;;;;;;30.57;12.97;;;;;;;4.51;96.68;99668.16;4962699;28;20693;-86
2021/12/19 03:55:35;;;;;;;23.80;11.37;;;;;;;4.50;96.30;99669.03;4944727;28;20630;-86
2021/12/19 03:58:05;;;;;;;27.80;12.20;;;;;;;4.58;96.46;99663.72;4947468;28;20638;-86
2021/12/19 04:00:35;;;;;;;24.03;11.87;;;;;;;4.63;95.89;99661.88;4963902;28;20631;-86
2021/12/19 04:03:05;;;;;;;26.60;12.53;;;;;;;4.68;96.15;99655.75;4958393;28;20730;-86
2021/12/19 04:05:33;;;;;;;25.03;12.47;;;;;;;4.64;96.56;99651.50;4961370;28;21089;-86
2021/12/19 04:08:02;;;;;;;25.23;11.50;;;;;;;4.63;95.40;99644.66;4962179;28;20634;-86
2021/12/19 04:10:30;;;;;;;22.93;10.40;;;;;;;4.61;95.31;99643.81;4948892;28;20662;-86
2021/12/19 04:12:58;;;;;;;27.20;11.73;;;;;;;4.52;94.70;99636.25;4943983;28;21214;-86
2021/12/19 04:15:27;;;;;;;20.93;10.23;;;;;;;4.46;96.24;99633.78;4956281;28;20637;-86
2021/12/19 04:17:56;;;;;;;22.80;11.00;;;;;;;4.45;95.69;99631.25;4956483;28;21593;-86
2021/12/19 04:20:24;;;;;;;23.07;10.43;;;;;;;4.45;95.41;99620.91;4931978;28;21211;-86
2021/12/19 04:22:56;;;;;;;20.43;9.17;;;;;;;4.44;96.32;99620.06;4948273;28;20651;-86
2021/12/19 04:25:26;;;;;;;19.83;9.27;;;;;;;4.34;96.30;99620.28;4959874;28;20672;-86
2021/12/19 04:27:54;;;;;;;21.03;8.80;;;;;;;4.33;96.39;99622.03;4963494;28;20644;-86
2021/12/19 04:30:25;;;;;;;22.67;10.20;;;;;;;4.35;96.27;99628.00;4960314;28;21174;-86
2021/12/19 04:33:01;;;;;;;25.17;10.67;;;;;;;4.41;95.95;99619.28;4966676;28;20637;-86
2021/12/19 04:35:33;;;;;;;20.20;9.73;;;;;;;4.48;96.13;99620.84;4968573;28;20746;-86
2021/12/19 04:41:17;;;;;;;21.00;9.20;;;;;;;4.62;96.56;99627.47;4916431;28;20640;-86
2021/12/19 04:55:10;;;;;;;23.17;11.10;;;;;;;4.88;96.15;99633.78;4964230;28;22159;-86
2021/12/19 04:57:44;;;;;;;23.10;10.83;;;;;;;4.93;95.43;99626.78;4967848;28;20642;-86
2021/12/19 05:00:19;;;;;;;25.10;11.83;;;;;;;4.96;95.27;99616.38;4969355;28;20626;-86
2021/12/19 05:02:52;;;;;;;26.13;12.40;;;;;;;4.95;94.65;99619.84;4964371;28;21005;-86
2021/12/19 05:05:49;;;;;;;26.83;13.07;;;;;;;4.83;94.24;99616.69;4964093;28;20678;-86
2021/12/19 05:14:12;;;;;;;31.10;14.37;;;;;;;4.66;95.63;99616.19;4941133;28;22307;-86
2021/12/19 05:16:43;;;;;;;29.30;13.73;;;;;;;4.62;95.17;99613.69;4964590;28;21196;-86
2021/12/19 05:19:22;;;;;;;29.90;14.73;;;;;;;4.62;95.15;99614.53;4945001;28;23731;-86
2021/12/19 05:21:55;;;;;;;26.10;13.10;;;;;;;4.60;95.47;99620.59;4951447;28;20645;-86
2021/12/19 05:27:10;;;;;;;34.10;13.43;;;;;;;4.73;95.75;99620.31;4964082;28;20679;-86
2021/12/19 05:29:41;;;;;;;27.03;13.33;;;;;;;4.80;95.66;99619.34;4947998;28;20645;-86
2021/12/19 05:32:09;;;;;;;28.00;13.10;;;;;;;4.82;96.03;99615.81;4945549;28;20934;-86
2021/12/19 05:34:37;;;;;;;34.90;14.77;;;;;;;4.87;95.36;99611.41;4949182;28;21301;-86
2021/12/19 05:45:24;;;;;;;33.80;14.47;;;;;;;5.02;95.69;99599.88;4935023;28;20636;-86
2021/12/19 05:47:53;;;;;;;29.13;12.30;;;;;;;5.04;94.61;99604.13;4950034;28;20691;-86
2021/12/19 05:50:22;;;;;;;31.83;12.27;;;;;;;5.08;94.74;99599.75;4965478;28;20646;-86
2021/12/19 05:52:52;;;;;;;25.13;12.07;;;;;;;5.12;94.76;99603.97;4946430;28;20632;-86
2021/12/19 05:55:25;;;;;;;25.80;11.20;;;;;;;5.10;94.37;99598.84;4965481;28;20648;-86
2021/12/19 05:57:56;;;;;;;24.77;11.63;;;;;;;5.11;94.45;99597.09;4967814;28;20632;-86
2021/12/19 06:00:25;;;;;;;24.47;11.20;;;;;;;5.09;94.22;99594.53;4961354;28;20727;-86
2021/12/19 06:02:53;;;;;;;28.10;12.70;;;;;;;5.05;94.37;99589.47;4960154;28;20642;-86
2021/12/19 06:05:22;;;;;;;30.17;13.30;;;;;;;4.94;94.77;99587.13;4933048;28;21306;-86
2021/12/19 06:07:50;;;;;;;31.83;12.60;;;;;;;4.82;94.76;99584.81;4960729;28;20653;-86
2021/12/19 06:10:20;;;;;;;33.60;13.47;;;;;;;4.74;95.11;99583.28;4966878;28;20742;-86
2021/12/19 06:12:48;;;;;;;29.23;12.73;;;;;;;4.73;94.52;99579.00;4947600;28;20989;-86
2021/12/19 06:15:19;;;;;;;37.33;14.50;;;;;;;4.74;95.11;99572.94;4949015;28;20670;-86
2021/12/19 06:17:47;;;;;;;38.33;14.10;;;;;;;4.76;96.22;99566.00;4932123;28;20647;-86
2021/12/19 06:20:16;;;;;;;25.77;12.53;;;;;;;4.78;95.08;99564.22;4949591;28;20677;-86
2021/12/19 06:22:44;;;;;;;30.77;12.83;;;;;;;4.69;96.10;99565.31;4950470;28;20634;-86
2021/12/19 06:25:14;;;;;;;26.73;12.07;;;;;;;4.70;96.29;99566.13;4964872;28;20641;-86
2021/12/19 06:27:47;;;;;;;27.40;11.63;;;;;;;4.71;96.03;99554.94;4958336;28;20639;-86
2021/12/19 06:30:15;;;;;;;26.27;11.60;;;;;;;4.68;95.79;99550.66;4949407;28;20629;-86
2021/12/19 06:32:44;;;;;;;28.77;11.83;;;;;;;4.70;95.89;99556.66;4964156;28;20637;-86
2021/12/19 06:35:19;;;;;;;33.27;12.87;;;;;;;4.69;96.87;99557.56;4946985;28;21014;-86
2021/12/19 06:37:50;;;;;;;30.60;13.03;;;;;;;4.73;96.77;99560.91;4961378;28;20788;-86
2021/12/19 06:40:22;;;;;;;28.27;12.03;;;;;;;4.80;97.28;99568.50;4956618;28;20642;-86
2021/12/19 06:42:51;;;;;;;28.13;12.30;;;;;;;4.85;96.95;99566.66;4929833;28;20642;-86
2021/12/19 06:45:21;;;;;;;26.27;11.27;;;;;;;4.90;96.57;99570.00;4955744;28;20738;-86
2021/12/19 06:47:49;;;;;;;26.53;10.37;;;;;;;4.96;95.48;99563.81;4931477;28;21011;-86
2021/12/19 06:50:23;;;;;;;22.07;9.63;;;;;;;4.92;96.04;99568.22;4961279;28;20683;-86
2021/12/19 06:52:52;;;;;;;22.23;9.40;;;;;;;4.96;95.80;99569.00;4968471;28;21187;-86
2021/12/19 06:55:20;;;;;;;21.37;9.50;;;;;;;5.00;95.97;99568.88;4948839;28;20716;-86
2021/12/19 06:57:48;;;;;;;19.17;8.80;;;;;;;5.05;95.26;99571.38;4963002;28;20637;-86
2021/12/19 07:00:21;;;;;;;20.03;10.20;;;;;;;5.06;95.90;99579.09;4945604;28;21026;-86
2021/12/19 07:02:52;;;;;;;21.50;9.50;;;;;;;5.10;95.38;99572.09;4963261;28;20685;-86
2021/12/19 07:05:20;;;;;;;21.47;9.43;;;;;;;5.09;94.67;99570.44;4964819;28;20664;-86
2021/12/19 07:07:48;;;;;;;19.60;8.87;;;;;;;5.05;95.09;99559.31;4961865;28;20668;-86
2021/12/19 07:10:18;;;;;;;17.23;8.67;;;;;;;5.01;95.47;99565.44;4960411;28;20672;-86
2021/12/19 07:12:46;;;;;;;20.73;8.63;;;;;;;4.99;94.84;99551.72;4945173;28;20634;-86
2021/12/19 07:15:15;;;;;;;21.27;9.17;;;;;;;4.97;94.90;99560.38;4944688;28;20674;-86
2021/12/19 07:17:44;;;;;;;21.77;8.63;;;;;;;4.92;94.57;99564.81;4963149;28;21175;-86
2021/12/19 07:20:15;;;;;;;16.30;7.77;;;;;;;4.86;94.72;99557.19;4947212;28;20665;-86
2021/12/19 07:22:46;;;;;;;17.43;8.17;;;;;;;4.86;95.06;99563.19;4948195;28;20646;-84
2021/12/19 07:25:14;;;;;;;17.43;8.53;;;;;;;4.85;95.42;99566.66;4931063;28;20652;-85
2021/12/19 07:27:42;;;;;;;16.63;7.70;;;;;;;4.89;96.17;99565.72;4946973;28;21191;-85
2021/12/19 07:30:11;;;;;;;18.87;9.10;;;;;;;4.96;95.31;99564.69;4949343;28;21067;-85
2021/12/19 07:32:39;;;;;;;16.77;8.53;;;;;;;5.02;95.18;99563.69;4963027;28;20632;-85
2021/12/19 07:35:22;;;;;;;18.37;7.40;;;;;;;5.05;95.34;99555.88;4947670;28;20673;-85
2021/12/19 07:37:52;;;;;;;17.33;7.20;;;;;;;5.06;95.48;99550.66;4944000;28;21353;-85
2021/12/19 07:40:22;;;;;;;16.43;8.37;;;;;;;5.03;95.18;99555.06;4958386;28;20654;-85
2021/12/19 07:42:52;;;;;;;19.00;7.80;;;;;;;5.00;95.43;99565.47;4960550;28;20648;-85
2021/12/19 07:45:20;;;;;;;14.80;6.90;;;;;;;5.00;94.71;99566.31;4944607;28;20625;-85
2021/12/19 07:47:48;;;;;;;15.70;8.10;;;;;;;5.05;94.81;99564.50;4963736;28;21227;-85
2021/12/19 07:50:17;;;;;;;13.10;6.50;;;;;;;5.08;95.10;99553.22;4966414;28;20737;-86
2021/12/19 07:52:46;;;;;;;13.80;5.70;;;;;;;5.13;95.31;99550.47;4960945;28;21676;-85
2021/12/19 07:55:17;;;;;;;11.57;5.40;;;;;;;5.16;95.26;99541.81;4950262;28;20664;-86
2021/12/19 07:57:45;;;;;;;12.03;6.20;;;;;;;5.21;94.81;99542.53;4941652;28;21208;-85
2021/12/19 08:00:15;;;;;;;13.13;6.00;;;;;;;5.23;94.70;99536.47;4949035;28;20665;-85
2021/12/19 08:02:45;;;;;;;12.63;6.43;;;;;;;5.24;94.61;99532.97;4945042;28;20643;-85
2021/12/19 08:05:14;;;;;;;11.93;6.10;;;;;;;5.22;94.23;99524.41;4945311;28;20675;-85
2021/12/19 08:07:43;;;;;;;15.30;7.00;;;;;;;5.19;94.21;99526.22;4955026;28;20643;-85
2021/12/19 08:11:39;;;;;;;16.00;6.63;;;;;;;5.20;94.26;99538.25;4930361;28;20656;-85
2021/12/19 08:13:02;;;;;;;11.77;7.17;;;;;;;5.12;95.01;99547.09;4955781;28;20643;-85
2021/12/19 08:15:30;;;;;;;15.37;6.10;;;;;;;5.15;94.23;99548.69;4946067;28;20657;-86
2021/12/19 08:17:58;;;;;;;11.23;4.77;;;;;;;5.22;94.88;99547.69;4932029;28;20635;-85
2021/12/19 08:20:28;;;;;;;11.30;5.20;;;;;;;5.23;94.18;99544.22;4947672;28;20637;-85
2021/12/19 08:22:58;;;;;;;10.30;6.17;;;;;;;5.28;94.46;99544.94;4945710;28;20728;-85
2021/12/19 08:25:27;;;;;;;12.00;5.53;;;;;;;5.30;94.30;99535.41;4946780;28;20637;-85
2021/12/19 08:27:55;;;;;;;10.70;5.50;;;;;;;5.30;93.74;99534.56;4930778;28;20640;-86
2021/12/19 08:30:27;;;;;;;10.00;5.50;;;;;;;5.27;93.74;99529.47;4962849;28;20649;-86
2021/12/19 08:32:56;;;;;;;10.10;5.07;;;;;;;5.18;94.32;99521.94;4945211;28;20735;-86
2021/12/19 08:35:25;;;;;;;11.47;6.40;;;;;;;5.10;94.31;99528.16;4961416;28;20758;-85
2021/12/19 08:37:53;;;;;;;9.97;5.63;;;;;;;5.04;94.11;99524.00;4950378;28;20637;-86
2021/12/19 08:40:22;;;;;;;9.10;5.53;;;;;;;5.12;94.79;99524.66;4948116;28;21053;-85
2021/12/19 08:42:52;;;;;;;11.17;5.43;;;;;;;5.14;94.68;99525.47;4957474;28;20630;-85
2021/12/19 08:45:21;;;;;;;10.53;5.63;;;;;;;5.09;94.00;99516.16;4945451;28;21214;-85
2021/12/19 08:47:49;;;;;;;11.90;6.77;;;;;;;4.95;94.72;99511.28;4943669;28;20631;-85
2021/12/19 08:50:18;;;;;;;14.60;7.67;;;;;;;4.85;95.11;99514.13;4946232;28;20625;-85
2021/12/19 08:52:51;;;;;;;19.63;6.70;;;;;;;4.82;94.29;99514.19;4953110;28;21256;-85
2021/12/19 08:55:20;;;;;;;13.57;7.40;;;;;;;4.72;95.02;99529.06;4953470;28;20636;-86
2021/12/19 08:57:48;;;;;;;13.30;7.17;;;;;;;4.77;95.46;99523.78;4962343;28;20648;-85
2021/12/19 09:00:19;;;;;;;12.67;6.37;;;;;;;4.82;95.96;99519.38;4961180;28;20675;-86
2021/12/19 09:02:51;;;;;;;11.43;6.10;;;;;;;4.80;95.42;99521.97;4956357;28;20668;-84
2021/12/19 09:05:27;;;;;;;10.90;5.53;;;;;;;4.83;95.45;99524.50;4948649;28;21148;-84
2021/12/19 09:07:58;;;;;;;10.90;5.40;;;;;;;4.87;95.47;99520.09;4959580;28;20799;-84
2021/12/19 09:10:26;;;;;;;14.17;7.10;;;;;;;4.82;96.05;99509.03;4948638;28;20656;-84
2021/12/19 09:12:54;;;;;;;11.73;6.20;;;;;;;4.80;95.80;99511.66;4931990;28;20626;-85
2021/12/19 09:15:25;;;;;;;11.80;6.40;;;;;;;4.74;95.75;99508.38;4957397;28;20652;-85
2021/12/19 09:17:53;;;;;;;15.40;6.80;;;;;;;4.71;96.00;99511.00;4961952;28;20652;-87
2021/12/19 09:20:21;;;;;;;11.83;5.70;;;;;;;4.67;96.43;99511.94;4964950;28;20654;-84
2021/12/19 09:22:50;;;;;;;12.27;6.87;;;;;;;4.66;95.65;99505.13;4951699;28;20980;-84
2021/12/19 09:25:19;;;;;;;10.97;6.23;;;;;;;4.68;96.87;99511.09;4966228;28;20666;-87
2021/12/19 09:27:48;;;;;;;9.17;5.23;;;;;;;4.73;96.47;99504.91;4965447;28;20649;-86
2021/12/19 09:30:16;;;;;;;11.00;6.20;;;;;;;4.77;96.80;99501.38;4932374;28;21217;-83
2021/12/19 09:32:47;;;;;;;14.37;7.00;;;;;;;4.85;97.07;99503.78;4954774;28;20652;-84
2021/12/19 09:35:18;;;;;;;11.73;6.00;;;;;;;4.96;96.39;99504.38;4966725;28;20720;-85
2021/12/19 09:37:46;;;;;;;11.30;5.67;;;;;;;5.02;96.54;99499.06;4938430;28;21021;-85
2021/12/19 09:40:20;;;;;;;11.43;6.30;;;;;;;5.02;95.89;99496.47;4969499;28;20644;-83
2021/12/19 09:42:50;;;;;;;13.03;6.00;;;;;;;4.99;95.03;99500.00;4950395;28;20669;-83
2021/12/19 09:45:20;;;;;;;10.57;5.67;;;;;;;5.02;96.05;99488.72;4964966;28;20756;-84
2021/12/19 09:47:54;;;;;;;10.50;5.73;;;;;;;4.94;95.61;99494.06;4951217;28;20737;-91
2021/12/19 09:50:23;;;;;;;14.40;6.60;;;;;;;4.96;95.25;99489.75;4950690;28;20683;-92
2021/12/19 09:52:51;;;;;;;12.67;6.30;;;;;;;4.98;96.03;99485.38;4938833;28;21248;-91
2021/12/19 09:55:24;;;;;;;14.27;6.47;;;;;;;5.02;95.20;99491.31;4946560;28;20750;-85
2021/12/19 09:57:54;;;;;;;13.00;6.10;;;;;;;5.07;96.25;99489.50;4970327;28;20648;-85
2021/12/19 10:00:23;;;;;;;15.03;5.87;;;;;;;5.01;95.63;99474.97;4964364;28;21271;-88
2021/12/19 10:02:53;;;;;;;15.63;7.83;;;;;;;4.93;95.39;99476.91;4967789;28;20643;-88
2021/12/19 10:05:24;;;;;;;13.70;7.47;;;;;;;4.88;95.92;99472.72;4936748;28;20689;-86
2021/12/19 10:07:53;;;;;;;20.00;9.87;;;;;;;4.83;95.50;99474.56;4935313;28;20670;-86
2021/12/19 10:10:26;;;;;;;13.47;7.60;;;;;;;4.74;96.51;99461.84;4952372;28;20999;-86
2021/12/19 10:12:57;;;;;;;14.50;7.70;;;;;;;4.77;97.00;99457.47;4965723;28;20632;-86
2021/12/19 10:15:29;;;;;;;13.97;7.70;;;;;;;4.85;97.63;99459.88;4953820;28;21416;-88
2021/12/19 10:18:06;;;;;;;15.43;8.63;;;;;;;4.99;96.91;99457.78;4968725;28;20664;-86
2021/12/19 10:20:44;;;;;;;17.03;8.63;;;;;;;4.95;96.45;99446.69;4964714;28;20639;-88
2021/12/19 10:23:13;;;;;;;12.83;7.40;;;;;;;4.97;96.94;99454.41;4972728;28;20675;-88
2021/12/19 10:25:42;;;;;;;14.00;7.20;;;;;;;5.01;96.41;99445.69;4967296;28;21588;-87
2021/12/19 10:28:12;;;;;;;13.37;7.73;;;;;;;4.95;96.52;99438.09;4951106;28;20659;-88
2021/12/19 10:30:43;;;;;;;11.10;7.13;;;;;;;5.01;96.87;99427.59;4951542;28;20732;-87
2021/12/19 10:33:15;;;;;;;11.30;6.90;;;;;;;5.09;96.74;99430.84;4938543;28;20739;-87
2021/12/19 10:35:47;;;;;;;13.53;7.40;;;;;;;5.20;96.59;99419.31;4936909;28;20672;-86
2021/12/19 10:38:18;;;;;;;15.53;6.57;;;;;;;5.22;96.04;99412.38;4949275;28;20746;-88
2021/12/19 10:40:49;;;;;;;10.53;6.50;;;;;;;5.27;95.71;99419.13;4953226;28;20645;-85
2021/12/19 10:43:20;;;;;;;10.20;6.10;;;;;;;5.24;94.50;99406.25;4950571;28;20625;-93
2021/12/19 10:45:51;;;;;;;10.47;6.03;;;;;;;5.10;95.18;99399.78;4958971;28;20725;-84
2021/12/19 10:48:31;;;;;;;12.00;6.20;;;;;;;5.14;95.87;99404.84;4953107;28;20632;-83
2021/12/19 10:51:04;;;;;;;10.90;7.00;;;;;;;5.23;95.71;99404.59;4949277;28;21204;-84
2021/12/19 10:53:36;;;;;;;11.73;5.63;;;;;;;5.24;95.75;99398.50;4962768;28;20761;-81
2021/12/19 10:56:08;;;;;;;9.30;6.00;;;;;;;5.33;95.42;99395.69;4969886;28;20641;-84
2021/12/19 10:58:39;;;;;;;10.27;5.70;;;;;;;5.38;94.78;99383.50;4967148;28;20759;-82
2021/12/19 11:01:32;;;;;;;9.93;7.23;;;;;;;5.38;94.74;99388.66;4968669;28;20660;-85
2021/12/19 11:04:04;;;;;;;11.07;7.80;;;;;;;5.49;95.11;99388.34;4944217;28;20755;-84
2021/12/19 11:06:38;;;;;;;9.60;6.50;;;;;;;5.57;94.66;99382.09;4964112;28;20549;-84
2021/12/19 11:09:10;;;;;;;9.43;6.23;;;;;;;5.65;94.32;99374.94;4975361;28;20689;-85
2021/12/19 11:11:42;;;;;;;8.70;5.97;;;;;;;5.68;94.08;99372.28;4966065;28;20650;-85
2021/12/19 11:14:12;;;;;;;10.30;6.30;;;;;;;5.72;94.19;99359.19;4949948;28;21215;-85
2021/12/19 11:16:43;;;;;;;8.87;5.50;;;;;;;5.64;93.52;99360.34;4948974;28;20640;-88
2021/12/19 11:19:13;;;;;;;12.20;6.63;;;;;;;5.58;93.60;99350.16;4950844;28;20638;-90
2021/12/19 11:21:42;;;;;;;10.40;5.90;;;;;;;5.58;93.61;99357.06;4934543;28;20642;-89
2021/12/19 11:24:12;;;;;;;11.90;6.20;;;;;;;5.58;94.17;99346.69;4966184;28;20758;-88
2021/12/19 11:26:42;;;;;;;8.60;5.80;;;;;;;5.64;93.99;99344.81;4964086;28;20634;-90
2021/12/19 11:29:12;;;;;;;9.27;6.97;;;;;;;5.69;93.67;99338.59;4961196;28;20656;-89
2021/12/19 11:31:42;;;;;;;8.30;5.80;;;;;;;5.68;93.42;99331.75;4951844;28;21230;-87
2021/12/19 11:34:21;;;;;;;9.97;6.80;;;;;;;5.69;93.52;99327.41;4966249;28;20742;-89
2021/12/19 11:36:56;;;;;;;9.40;6.53;;;;;;;5.67;93.95;99322.28;4947197;28;20664;-88
2021/12/19 11:39:31;;;;;;;10.83;6.80;;;;;;;5.71;94.23;99321.31;4944757;28;20644;-90
2021/12/19 11:42:09;;;;;;;7.70;5.50;;;;;;;5.77;93.95;99320.28;4952284;28;20677;-91
2021/12/19 11:44:46;;;;;;;8.60;5.30;;;;;;;5.79;93.40;99321.09;4961577;28;20732;-91
2021/12/19 11:47:39;;;;;;;21.07;11.33;;;;;;;5.76;92.97;99318.63;4938231;28;20673;-92
2021/12/19 11:50:18;;;;;;;8.40;5.10;;;;;;;5.71;92.40;99310.09;4970237;28;20644;-90
2021/12/19 11:52:54;;;;;;;9.87;5.00;;;;;;;5.78;92.66;99307.31;4954669;28;20638;-95
2021/12/19 11:55:26;;;;;;;5.97;4.90;;;;;;;5.80;92.85;99302.94;4968064;28;20636;-91
2021/12/19 11:58:22;;;;;;;7.80;5.87;;;;;;;5.86;93.01;99292.38;4968494;28;20666;-88
2021/12/19 12:00:54;;;;;;;7.67;5.00;;;;;;;5.89;92.68;99288.84;4969976;28;20687;-88
2021/12/19 12:03:29;;;;;;;7.00;4.80;;;;;;;5.90;92.49;99280.22;4952804;28;20625;-90
2021/12/19 12:06:25;;;;;;;6.20;4.60;;;;;;;5.82;91.53;99275.28;4968231;28;20670;-90
2021/12/19 12:09:27;;;;;;;6.23;4.43;;;;;;;5.78;91.16;99275.41;4952860;28;20721;-89
2021/12/19 12:12:15;;;;;;;5.77;4.37;;;;;;;5.71;92.11;99263.50;4964089;28;21234;-88
2021/12/19 12:14:53;;;;;;;7.40;4.73;;;;;;;5.68;92.11;99263.59;4963307;28;20682;-88
2021/12/19 12:17:28;;;;;;;9.10;6.53;;;;;;;5.75;92.02;99259.97;4973073;28;20632;-88
2021/12/19 12:20:01;;;;;;;7.67;5.10;;;;;;;5.77;91.20;99250.41;4967211;28;21285;-88
2021/12/19 12:22:44;;;;;;;5.83;4.50;;;;;;;5.69;91.72;99242.84;4937246;28;20651;-88
2021/12/19 12:25:19;;;;;;;7.37;4.90;;;;;;;5.65;91.95;99245.56;4951785;28;20639;-88
2021/12/19 12:27:53;;;;;;;6.37;4.70;;;;;;;5.58;91.86;99244.09;4954479;28;20682;-88
2021/12/19 12:30:24;;;;;;;8.93;5.17;;;;;;;5.57;92.04;99239.81;4969472;28;20704;-89
2021/12/19 12:32:53;;;;;;;6.70;4.97;;;;;;;5.60;92.18;99229.34;4965384;28;20657;-89
2021/12/19 12:35:22;;;;;;;6.57;5.00;;;;;;;5.57;92.01;99229.44;4953289;28;21176;-89
2021/12/19 12:37:55;;;;;;;7.30;5.17;;;;;;;5.60;91.83;99221.59;4952894;28;20659;-89